createdAt,value
2023-02-02T00:01:14.165Z,100142.81
2023-02-02T00:03:41.979Z,100132.28
2023-02-02T00:06:09.862Z,100124.13
2023-02-02T00:08:38.337Z,100132.09
2023-02-02T00:11:06.248Z,100132.28
2023-02-02T00:13:34.142Z,100138.59
2023-02-02T00:16:02.034Z,100138.09
2023-02-02T00:18:29.904Z,100142.84
2023-02-02T00:20:57.774Z,100148.13
2023-02-02T00:23:25.569Z,100154.41
2023-02-02T00:25:53.454Z,100150.19
2023-02-02T00:28:21.443Z,100150.38
2023-02-02T00:30:49.404Z,100141.34
2023-02-02T00:33:17.311Z,100142.38
2023-02-02T00:35:45.213Z,100142.38
2023-02-02T00:38:13.061Z,100149.50
2023-02-02T00:40:40.883Z,100157.03
2023-02-02T00:43:08.731Z,100153.63
2023-02-02T00:45:35.538Z,100151.09
2023-02-02T00:48:03.438Z,100151.75
2023-02-02T00:50:31.376Z,100154.84
2023-02-02T00:52:59.236Z,100161.31
2023-02-02T00:55:27.129Z,100164.03
2023-02-02T00:57:55.008Z,100158.94
2023-02-02T01:00:23.795Z,100162.72
2023-02-02T01:02:51.578Z,100165.44
2023-02-02T01:05:19.484Z,100161.03
2023-02-02T01:07:47.357Z,100163.91
2023-02-02T01:10:15.245Z,100161.03
2023-02-02T01:12:43.034Z,100157.63
2023-02-02T01:15:10.857Z,100154.09
2023-02-02T01:17:38.707Z,100151.38
2023-02-02T01:20:06.839Z,100155.09
2023-02-02T01:22:34.952Z,100157.13
2023-02-02T01:25:02.845Z,100158.00
2023-02-02T01:27:30.745Z,100155.47
2023-02-02T01:29:58.601Z,100154.63
2023-02-02T01:32:26.705Z,100152.91
2023-02-02T01:34:54.505Z,100150.19
2023-02-02T01:37:22.999Z,100148.34
2023-02-02T01:39:50.857Z,100153.94
2023-02-02T01:42:18.752Z,100146.63
2023-02-02T01:44:46.844Z,100147.69
2023-02-02T01:47:14.709Z,100144.13
2023-02-02T01:49:42.574Z,100134.09
2023-02-02T01:52:10.764Z,100136.81
2023-02-02T01:54:38.633Z,100133.25
2023-02-02T01:57:06.601Z,100140.53
2023-02-02T01:59:34.470Z,100142.41
2023-02-02T02:02:02.358Z,100140.72
2023-02-02T02:04:30.279Z,100147.00
2023-02-02T02:06:58.112Z,100149.91
2023-02-02T02:09:26.017Z,100151.59
2023-02-02T02:11:53.931Z,100158.91
2023-02-02T02:14:35.550Z,100159.09
2023-02-02T02:17:06.335Z,100165.56
2023-02-02T02:19:34.212Z,100169.28
2023-02-02T02:22:19.609Z,100166.56
2023-02-02T02:25:05.061Z,100163.22
2023-02-02T02:27:32.982Z,100159.81
2023-02-02T02:30:00.855Z,100167.97
2023-02-02T02:32:28.740Z,100173.41
2023-02-02T02:34:56.834Z,100172.56
2023-02-02T02:37:24.699Z,100178.00
2023-02-02T02:39:52.558Z,100182.56
2023-02-02T02:42:20.495Z,100182.56
2023-02-02T02:44:48.326Z,100178.19
2023-02-02T02:47:16.154Z,100184.44
2023-02-02T02:49:44.553Z,100183.78
2023-02-02T02:52:12.605Z,100186.50
2023-02-02T02:54:40.512Z,100191.09
2023-02-02T02:57:08.414Z,100183.31
2023-02-02T02:59:36.367Z,100196.88
2023-02-02T03:02:04.203Z,100194.34
2023-02-02T03:04:32.041Z,100190.41
2023-02-02T03:06:59.900Z,100183.31
2023-02-02T03:09:29.531Z,100185.84
2023-02-02T03:11:57.385Z,100190.41
2023-02-02T03:14:25.251Z,100182.63
2023-02-02T03:16:53.113Z,100181.78
2023-02-02T03:19:20.998Z,100178.41
2023-02-02T03:21:48.886Z,100176.72
2023-02-02T03:24:16.775Z,100180.44
2023-02-02T03:26:44.749Z,100184.19
2023-02-02T03:29:12.636Z,100187.09
2023-02-02T03:31:40.583Z,100188.97
2023-02-02T03:34:08.497Z,100192.50
2023-02-02T03:36:36.367Z,100185.25
2023-02-02T03:39:04.212Z,100197.94
2023-02-02T03:41:32.056Z,100196.09
2023-02-02T03:43:59.958Z,100198.81
2023-02-02T03:46:27.913Z,100206.09
2023-02-02T03:48:55.811Z,100206.78
2023-02-02T03:51:23.646Z,100212.22
2023-02-02T03:53:51.533Z,100217.84
2023-02-02T03:56:20.401Z,100214.25
2023-02-02T03:58:48.415Z,100219.69
2023-02-02T04:01:16.250Z,100219.69
2023-02-02T04:03:46.310Z,100214.44
2023-02-02T04:06:17.270Z,100209.84
2023-02-02T04:08:44.982Z,100223.44
2023-02-02T04:11:12.718Z,100223.44
2023-02-02T04:13:43.359Z,100229.91
2023-02-02T04:16:11.107Z,100233.47
2023-02-02T04:18:39.087Z,100237.03
2023-02-02T04:21:06.818Z,100234.31
2023-02-02T04:23:34.576Z,100240.56
2023-02-02T04:26:02.320Z,100242.44
2023-02-02T04:28:30.064Z,100253.31
2023-02-02T04:30:57.934Z,100250.59
2023-02-02T04:33:25.675Z,100257.06
2023-02-02T04:35:53.463Z,100248.91
2023-02-02T04:38:21.208Z,100268.94
2023-02-02T04:40:48.953Z,100266.44
2023-02-02T04:43:16.654Z,100266.44
2023-02-02T04:45:45.085Z,100264.53
2023-02-02T04:48:13.197Z,100264.53
2023-02-02T04:50:40.905Z,100270.97
2023-02-02T04:53:08.658Z,100269.97
2023-02-02T04:55:36.403Z,100272.69
2023-02-02T04:58:04.147Z,100287.13
2023-02-02T05:00:31.915Z,100275.22
2023-02-02T05:02:59.654Z,100287.97
2023-02-02T05:05:27.548Z,100297.31
2023-02-02T05:07:55.307Z,100293.59
2023-02-02T05:10:23.048Z,100295.28
2023-02-02T05:12:50.746Z,100306.31
2023-02-02T05:15:18.437Z,100294.78
2023-02-02T05:17:46.232Z,100303.78
2023-02-02T05:20:13.969Z,100303.78
2023-02-02T05:22:41.802Z,100305.66
2023-02-02T05:25:09.511Z,100311.94
2023-02-02T05:27:37.284Z,100315.66
2023-02-02T05:30:05.093Z,100319.38
2023-02-02T05:32:32.858Z,100318.53
2023-02-02T05:35:00.576Z,100314.13
2023-02-02T05:37:28.286Z,100322.28
2023-02-02T05:39:56.046Z,100321.59
2023-02-02T05:42:23.743Z,100326.34
2023-02-02T05:44:51.444Z,100328.38
2023-02-02T05:47:19.153Z,100325.50
2023-02-02T05:49:46.851Z,100340.97
2023-02-02T05:52:15.546Z,100331.28
2023-02-02T05:54:43.338Z,100332.13
2023-02-02T05:57:11.045Z,100337.38
2023-02-02T05:59:38.744Z,100331.28
2023-02-02T06:02:06.481Z,100345.72
2023-02-02T06:04:34.224Z,100350.97
2023-02-02T06:07:02.338Z,100353.88
2023-02-02T06:09:32.118Z,100351.31
2023-02-02T06:11:59.821Z,100353.34
2023-02-02T06:14:27.590Z,100364.22
2023-02-02T06:16:55.332Z,100360.50
2023-02-02T06:19:23.131Z,100374.91
2023-02-02T06:21:50.979Z,100363.38
2023-02-02T06:24:18.855Z,100370.84
2023-02-02T06:26:46.691Z,100367.13
2023-02-02T06:29:14.557Z,100371.72
2023-02-02T06:31:42.476Z,100385.59
2023-02-02T06:34:10.330Z,100386.63
2023-02-02T06:36:38.107Z,100378.84
2023-02-02T06:39:08.003Z,100379.00
2023-02-02T06:41:35.802Z,100384.44
2023-02-02T06:44:03.809Z,100380.72
2023-02-02T06:46:31.822Z,100389.03
2023-02-02T06:48:59.699Z,100387.16
2023-02-02T06:51:27.468Z,100387.34
2023-02-02T06:53:56.472Z,100394.47
2023-02-02T06:56:26.083Z,100398.00
2023-02-02T06:58:53.829Z,100387.34
2023-02-02T07:01:21.621Z,100396.34
2023-02-02T07:03:49.468Z,100401.75
2023-02-02T07:06:17.234Z,100396.34
2023-02-02T07:08:45.074Z,100406.16
2023-02-02T07:11:16.548Z,100406.16
2023-02-02T07:13:45.187Z,100411.59
2023-02-02T07:16:13.970Z,100414.31
2023-02-02T07:18:42.931Z,100415.34
2023-02-02T07:21:10.654Z,100418.91
2023-02-02T07:23:38.384Z,100427.88
2023-02-02T07:26:06.114Z,100435.19
2023-02-02T07:28:34.132Z,100428.72
2023-02-02T07:31:01.888Z,100433.31
2023-02-02T07:33:29.681Z,100435.03
2023-02-02T07:35:57.377Z,100446.91
2023-02-02T07:38:25.155Z,100440.47
2023-02-02T07:40:52.975Z,100451.97
2023-02-02T07:43:20.709Z,100446.72
2023-02-02T07:45:48.473Z,100452.16
2023-02-02T07:48:16.214Z,100452.16
2023-02-02T07:50:43.957Z,100454.03
2023-02-02T07:53:11.668Z,100456.41
2023-02-02T07:55:39.425Z,100460.13
2023-02-02T07:58:07.895Z,100467.28
2023-02-02T08:00:35.621Z,100457.41
2023-02-02T08:03:03.401Z,100470.00
2023-02-02T08:05:32.118Z,100475.41
2023-02-02T08:07:59.873Z,100462.19
2023-02-02T08:10:27.772Z,100475.91
2023-02-02T08:12:55.473Z,100479.47
2023-02-02T08:15:23.361Z,100481.34
2023-02-02T08:17:52.052Z,100482.38
2023-02-02T08:20:19.839Z,100487.13
2023-02-02T08:22:47.616Z,100485.25
2023-02-02T08:25:15.389Z,100495.28
2023-02-02T08:27:43.068Z,100496.13
2023-02-02T08:30:10.853Z,100494.25
2023-02-02T08:32:38.608Z,100504.25
2023-02-02T08:35:06.429Z,100503.56
2023-02-02T08:37:34.157Z,100506.28
2023-02-02T08:40:01.922Z,100513.44
2023-02-02T08:42:29.705Z,100517.16
2023-02-02T08:46:01.721Z,100509.00
2023-02-02T08:47:45.081Z,100509.19
2023-02-02T08:50:13.047Z,100517.16
2023-02-02T08:52:41.344Z,100520.91
2023-02-02T08:55:09.310Z,100513.78
2023-02-02T08:57:37.020Z,100519.38
2023-02-02T09:00:04.716Z,100522.44
2023-02-02T09:02:32.449Z,100528.84
2023-02-02T09:05:00.153Z,100521.91
2023-02-02T09:07:27.930Z,100518.19
2023-02-02T09:09:58.367Z,100528.00
2023-02-02T09:12:26.243Z,100529.03
2023-02-02T09:14:53.922Z,100539.91
2023-02-02T09:17:22.357Z,100531.75
2023-02-02T09:19:50.038Z,100542.63
2023-02-02T09:22:17.768Z,100541.78
2023-02-02T09:24:45.506Z,100550.75
2023-02-02T09:27:13.239Z,100545.34
2023-02-02T09:29:40.973Z,100545.34
2023-02-02T09:32:09.024Z,100556.19
2023-02-02T09:34:36.774Z,100554.31
2023-02-02T09:37:04.442Z,100558.06
2023-02-02T09:39:32.192Z,100558.91
2023-02-02T09:41:59.906Z,100567.91
2023-02-02T09:44:27.646Z,100568.91
2023-02-02T09:46:55.528Z,100573.31
2023-02-02T09:49:23.700Z,100563.66
2023-02-02T09:51:51.504Z,100580.63
2023-02-02T09:54:19.362Z,100583.34
2023-02-02T09:56:47.061Z,100586.75
2023-02-02T09:59:20.376Z,100596.72
2023-02-02T10:01:48.809Z,100583.34
2023-02-02T10:04:16.615Z,100589.63
2023-02-02T10:06:44.371Z,100583.16
2023-02-02T10:09:12.237Z,100594.91
2023-02-02T10:11:40.209Z,100596.56
2023-02-02T10:14:08.004Z,100593.88
2023-02-02T10:16:35.939Z,100596.44
2023-02-02T10:19:03.858Z,100580.97
2023-02-02T10:21:31.796Z,100585.56
2023-02-02T10:24:02.151Z,100593.72
2023-02-02T10:26:30.283Z,100585.56
2023-02-02T10:28:58.285Z,100600.13
2023-02-02T10:31:26.208Z,100592.19
2023-02-02T10:33:54.113Z,100604.72
2023-02-02T10:36:21.994Z,100603.88
2023-02-02T10:38:50.173Z,100589.47
2023-02-02T10:41:18.116Z,100599.63
2023-02-02T10:43:49.003Z,100593.88
2023-02-02T10:46:16.890Z,100590.81
2023-02-02T10:48:44.749Z,100594.38
2023-02-02T10:51:12.628Z,100594.22
2023-02-02T10:53:40.498Z,100594.91
2023-02-02T10:56:11.706Z,100604.91
2023-02-02T10:58:39.996Z,100603.06
2023-02-02T11:01:10.050Z,100606.75
2023-02-02T11:03:37.898Z,100603.22
2023-02-02T11:06:23.479Z,100611.34
2023-02-02T11:08:56.640Z,100612.38
2023-02-02T11:11:24.558Z,100614.06
2023-02-02T11:13:52.863Z,100613.22
2023-02-02T11:16:20.935Z,100615.09
2023-02-02T11:18:49.096Z,100623.25
2023-02-02T11:21:16.972Z,100625.25
2023-02-02T11:23:45.418Z,100623.56
2023-02-02T11:26:14.590Z,100624.56
2023-02-02T11:28:42.488Z,100634.75
2023-02-02T11:31:10.461Z,100630.19
2023-02-02T11:33:38.501Z,100637.31
2023-02-02T11:36:06.358Z,100642.03
2023-02-02T11:38:34.336Z,100639.34
2023-02-02T11:41:03.900Z,100643.75
2023-02-02T11:43:31.867Z,100643.91
2023-02-02T11:46:02.566Z,100647.47
2023-02-02T11:48:30.822Z,100649.50
2023-02-02T11:50:58.855Z,100652.06
2023-02-02T11:53:26.841Z,100652.91
2023-02-02T11:55:54.971Z,100652.06
2023-02-02T11:58:25.172Z,100644.75
2023-02-02T12:00:54.191Z,100661.06
2023-02-02T12:03:22.091Z,100669.19
2023-02-02T12:05:50.899Z,100664.47
2023-02-02T12:08:19.050Z,100666.47
2023-02-02T12:10:46.959Z,100677.19
2023-02-02T12:13:14.816Z,100678.88
2023-02-02T12:15:42.659Z,100671.56
2023-02-02T12:18:10.542Z,100672.44
2023-02-02T12:20:38.416Z,100679.56
2023-02-02T12:23:06.364Z,100679.72
2023-02-02T12:25:34.234Z,100677.00
2023-02-02T12:28:02.111Z,100669.88
2023-02-02T12:30:30.084Z,100670.59
2023-02-02T12:32:57.998Z,100676.00
2023-02-02T12:35:25.904Z,100673.28
2023-02-02T12:37:54.001Z,100684.31
2023-02-02T12:40:21.942Z,100686.69
2023-02-02T12:42:50.926Z,100688.56
2023-02-02T12:45:19.097Z,100692.31
2023-02-02T12:47:46.972Z,100693.00
2023-02-02T12:50:14.871Z,100691.47
2023-02-02T12:52:42.739Z,100690.78
2023-02-02T12:55:10.760Z,100706.88
2023-02-02T12:57:38.716Z,100709.59
2023-02-02T13:00:06.575Z,100704.16
2023-02-02T13:02:34.540Z,100703.16
2023-02-02T13:05:02.523Z,100710.47
2023-02-02T13:07:30.391Z,100719.59
2023-02-02T13:09:58.276Z,100713.34
2023-02-02T13:12:26.278Z,100715.19
2023-02-02T13:14:54.333Z,100722.50
2023-02-02T13:17:22.288Z,100728.78
2023-02-02T13:19:52.205Z,100722.50
2023-02-02T13:22:21.317Z,100723.50
2023-02-02T13:24:49.289Z,100730.94
2023-02-02T13:27:17.277Z,100737.25
2023-02-02T13:29:48.444Z,100739.09
2023-02-02T13:32:16.600Z,100739.28
2023-02-02T13:34:44.627Z,100756.56
2023-02-02T13:37:12.541Z,100754.03
2023-02-02T13:39:40.390Z,100755.91
2023-02-02T13:42:16.973Z,100764.03
2023-02-02T13:44:44.906Z,100756.75
2023-02-02T13:47:12.781Z,100768.59
2023-02-02T13:49:41.203Z,100775.06
2023-02-02T13:52:09.136Z,100776.06
2023-02-02T13:54:37.108Z,100772.66
2023-02-02T13:57:05.062Z,100773.66
2023-02-02T13:59:33.007Z,100780.97
2023-02-02T14:02:01.091Z,100773.84
2023-02-02T14:04:28.931Z,100779.25
2023-02-02T14:06:57.513Z,100785.53
2023-02-02T14:09:25.387Z,100791.81
2023-02-02T14:11:53.347Z,100785.53
2023-02-02T14:14:33.360Z,100790.97
2023-02-02T14:17:01.634Z,100801.97
2023-02-02T14:19:29.550Z,100801.97
2023-02-02T14:21:57.410Z,100804.69
2023-02-02T14:24:25.343Z,100811.66
2023-02-02T14:26:53.421Z,100810.66
2023-02-02T14:29:21.527Z,100810.81
2023-02-02T14:31:49.472Z,100807.25
2023-02-02T14:34:17.328Z,100810.66
2023-02-02T14:36:45.249Z,100811.50
2023-02-02T14:39:13.124Z,100816.81
2023-02-02T14:42:00.776Z,100821.53
2023-02-02T14:44:28.802Z,100824.38
2023-02-02T14:46:56.729Z,100829.53
2023-02-02T14:49:25.755Z,100831.56
2023-02-02T14:51:56.590Z,100837.56
2023-02-02T14:54:25.999Z,100843.78
2023-02-02T14:56:54.645Z,100856.91
2023-02-02T14:59:22.667Z,100852.81
2023-02-02T15:01:50.585Z,100856.91
2023-02-02T15:04:18.490Z,100871.81
2023-02-02T15:06:46.363Z,100880.22
2023-02-02T15:09:14.294Z,100878.78
2023-02-02T15:11:42.301Z,100889.38
2023-02-02T15:14:10.229Z,100893.72
2023-02-02T15:16:38.279Z,100889.41
2023-02-02T15:19:06.180Z,100887.03
2023-02-02T15:21:34.057Z,100884.94
2023-02-02T15:24:02.117Z,100890.78
2023-02-02T15:26:30.193Z,100899.16
2023-02-02T15:28:58.683Z,100907.44
2023-02-02T15:31:26.695Z,100907.69
2023-02-02T15:33:54.672Z,100909.28
2023-02-02T15:36:23.767Z,100917.81
2023-02-02T15:38:51.755Z,100924.13
2023-02-02T15:41:19.610Z,100932.44
2023-02-02T15:43:47.545Z,100932.78
2023-02-02T15:46:15.439Z,100941.28
2023-02-02T15:48:44.831Z,100952.72
2023-02-02T15:51:12.762Z,100957.84
2023-02-02T15:53:40.646Z,100963.28
2023-02-02T15:56:08.623Z,100974.06
2023-02-02T15:58:36.763Z,100975.84
2023-02-02T16:01:04.836Z,100974.94
2023-02-02T16:03:32.956Z,100980.56
2023-02-02T16:06:00.932Z,100988.34
2023-02-02T16:08:28.856Z,100985.47
2023-02-02T16:10:56.778Z,100991.28
2023-02-02T16:13:24.762Z,100989.41
2023-02-02T16:15:52.737Z,101008.94
2023-02-02T16:18:20.631Z,101008.31
2023-02-02T16:20:48.567Z,101005.34
2023-02-02T16:23:16.470Z,101008.00
2023-02-02T16:25:44.435Z,101012.28
2023-02-02T16:28:12.327Z,101024.41
2023-02-02T16:30:40.272Z,101022.06
2023-02-02T16:33:08.156Z,101028.53
2023-02-02T16:35:36.016Z,101032.50
2023-02-02T16:38:03.981Z,101038.53
2023-02-02T16:40:31.984Z,101045.03
2023-02-02T16:42:59.916Z,101040.47
2023-02-02T16:45:28.170Z,101053.78
2023-02-02T16:47:57.989Z,101049.19
2023-02-02T16:50:25.906Z,101049.13
2023-02-02T16:52:53.962Z,101055.53
2023-02-02T16:55:21.948Z,101065.75
2023-02-02T16:57:49.908Z,101066.06
2023-02-02T17:00:18.240Z,101071.41
2023-02-02T17:02:46.158Z,101077.19
2023-02-02T17:05:14.149Z,101085.25
2023-02-02T17:07:42.073Z,101094.13
2023-02-02T17:10:09.936Z,101104.53
2023-02-02T17:12:37.842Z,101113.09
2023-02-02T17:15:06.108Z,101107.91
2023-02-02T17:17:34.042Z,101117.91
2023-02-02T17:20:02.012Z,101119.28
2023-02-02T17:22:29.901Z,101120.38
2023-02-02T17:24:57.859Z,101122.03
2023-02-02T17:27:25.706Z,101121.31
2023-02-02T17:29:53.622Z,101127.09
2023-02-02T17:32:21.535Z,101135.56
2023-02-02T17:34:49.367Z,101129.16
2023-02-02T17:37:17.234Z,101137.50
2023-02-02T17:39:45.125Z,101139.56
2023-02-02T17:42:13.016Z,101138.34
2023-02-02T17:44:40.934Z,101131.13
2023-02-02T17:47:08.801Z,101134.84
2023-02-02T17:49:36.768Z,101136.09
2023-02-02T17:52:04.740Z,101138.94
2023-02-02T17:54:32.648Z,101130.56
2023-02-02T17:57:00.542Z,101132.31
2023-02-02T17:59:28.410Z,101137.72
2023-02-02T18:01:57.272Z,101145.91
2023-02-02T18:04:26.546Z,101145.59
2023-02-02T18:06:54.584Z,101152.75
2023-02-02T18:09:22.542Z,101147.69
2023-02-02T18:11:50.430Z,101155.22
2023-02-02T18:14:18.400Z,101157.56
2023-02-02T18:16:46.385Z,101159.97
2023-02-02T18:19:14.283Z,101151.25
2023-02-02T18:21:42.293Z,101150.22
2023-02-02T18:24:10.727Z,101153.88
2023-02-02T18:26:38.764Z,101147.97
2023-02-02T18:29:06.647Z,101149.50
2023-02-02T18:31:34.597Z,101142.00
2023-02-02T18:34:02.541Z,101148.19
2023-02-02T18:36:30.446Z,101149.59
2023-02-02T18:38:58.379Z,101146.38
2023-02-02T18:41:26.267Z,101147.84
2023-02-02T18:43:54.159Z,101150.22
2023-02-02T18:46:22.324Z,101150.91
2023-02-02T18:48:53.245Z,101160.22
2023-02-02T18:51:22.132Z,101163.31
2023-02-02T18:53:50.162Z,101164.50
2023-02-02T18:56:18.410Z,101154.00
2023-02-02T18:58:46.432Z,101157.28
2023-02-02T19:01:14.470Z,101152.25
2023-02-02T19:03:42.444Z,101155.06
2023-02-02T19:06:27.795Z,101150.75
2023-02-02T19:08:55.715Z,101156.31
2023-02-02T19:11:23.578Z,101152.38
2023-02-02T19:13:51.696Z,101159.97
2023-02-02T19:16:19.607Z,101162.31
2023-02-02T19:18:47.632Z,101159.47
2023-02-02T19:21:15.685Z,101169.56
2023-02-02T19:23:43.561Z,101161.19
2023-02-02T19:26:11.455Z,101159.47
2023-02-02T19:28:39.444Z,101147.59
2023-02-02T19:31:07.540Z,101154.41
2023-02-02T19:33:35.725Z,101161.31
2023-02-02T19:36:03.589Z,101155.97
2023-02-02T19:38:31.518Z,101149.19
2023-02-02T19:40:59.330Z,101151.66
2023-02-02T19:43:27.240Z,101147.81
2023-02-02T19:45:55.125Z,101148.16
2023-02-02T19:48:23.062Z,101150.19
2023-02-02T19:50:50.923Z,101145.19
2023-02-02T19:53:18.878Z,101149.84
2023-02-02T19:55:46.837Z,101151.94
2023-02-02T19:58:14.673Z,101146.56
2023-02-02T20:00:44.978Z,101140.91
2023-02-02T20:03:12.978Z,101141.84
2023-02-02T20:05:41.181Z,101149.09
2023-02-02T20:08:12.046Z,101146.47
2023-02-02T20:10:40.231Z,101148.53
2023-02-02T20:13:08.155Z,101145.69
2023-02-02T20:15:36.133Z,101157.78
2023-02-02T20:18:04.045Z,101169.50
2023-02-02T20:20:32.068Z,101169.03
2023-02-02T20:22:59.950Z,101177.63
2023-02-02T20:25:29.357Z,101180.19
2023-02-02T20:27:59.039Z,101183.97
2023-02-02T20:30:27.841Z,101189.25
2023-02-02T20:32:56.320Z,101185.63
2023-02-02T20:35:24.168Z,101179.19
2023-02-02T20:37:52.202Z,101185.88
2023-02-02T20:40:20.104Z,101172.94
2023-02-02T20:42:48.022Z,101177.97
2023-02-02T20:45:17.345Z,101179.81
2023-02-02T20:47:45.199Z,101174.25
2023-02-02T20:50:13.187Z,101166.16
2023-02-02T20:52:41.139Z,101165.56
2023-02-02T20:55:09.021Z,101166.75
2023-02-02T20:57:38.747Z,101170.47
2023-02-02T21:00:07.541Z,101164.53
2023-02-02T21:02:35.498Z,101164.69
2023-02-02T21:05:03.532Z,101165.53
2023-02-02T21:07:31.459Z,101159.59
2023-02-02T21:09:59.308Z,101149.72
2023-02-02T21:12:27.251Z,101151.66
2023-02-02T21:14:55.292Z,101149.84
2023-02-02T21:17:23.292Z,101149.91
2023-02-02T21:19:51.264Z,101146.53
2023-02-02T21:22:19.229Z,101140.47
2023-02-02T21:24:47.122Z,101143.25
2023-02-02T21:27:15.022Z,101149.75
2023-02-02T21:29:43.280Z,101151.66
2023-02-02T21:32:11.208Z,101151.03
2023-02-02T21:34:39.252Z,101141.66
2023-02-02T21:37:07.180Z,101158.78
2023-02-02T21:39:35.062Z,101159.47
2023-02-02T21:42:03.022Z,101155.41
2023-02-02T21:44:30.997Z,101158.84
2023-02-02T21:46:58.854Z,101153.88
2023-02-02T21:49:26.713Z,101158.84
2023-02-02T21:51:54.563Z,101158.69
2023-02-02T21:54:22.483Z,101154.78
2023-02-02T21:56:50.366Z,101153.78
2023-02-02T21:59:18.375Z,101150.72
2023-02-02T22:01:47.308Z,101143.03
2023-02-02T22:04:15.218Z,101152.56
2023-02-02T22:06:43.154Z,101156.00
2023-02-02T22:09:10.999Z,101151.03
2023-02-02T22:11:38.788Z,101146.28
2023-02-02T22:14:07.052Z,101150.34
2023-02-02T22:16:34.827Z,101141.69
2023-02-02T22:19:02.626Z,101130.44
2023-02-02T22:21:30.385Z,101134.69
2023-02-02T22:23:58.206Z,101134.00
2023-02-02T22:26:27.711Z,101138.28
2023-02-02T22:28:55.496Z,101135.34
2023-02-02T22:31:23.399Z,101127.66
2023-02-02T22:33:51.247Z,101120.69
2023-02-02T22:36:19.140Z,101110.97
2023-02-02T22:38:47.097Z,101115.91
2023-02-02T22:41:14.936Z,101111.66
2023-02-02T22:43:42.794Z,101099.91
2023-02-02T22:46:10.655Z,101106.50
2023-02-02T22:48:38.577Z,101104.97
2023-02-02T22:51:06.414Z,101099.19
2023-02-02T22:53:34.218Z,101102.06
2023-02-02T22:56:02.098Z,101104.09
2023-02-02T22:58:29.890Z,101104.09
2023-02-02T23:00:57.657Z,101104.44
2023-02-02T23:03:25.498Z,101100.16
2023-02-02T23:05:53.343Z,101103.09
2023-02-02T23:08:21.185Z,101107.16
2023-02-02T23:10:48.956Z,101115.81
2023-02-02T23:13:16.792Z,101112.41
2023-02-02T23:15:44.596Z,101115.28
2023-02-02T23:18:12.319Z,101118.19
2023-02-02T23:20:40.111Z,101114.78
2023-02-02T23:23:07.921Z,101126.88
2023-02-02T23:25:35.678Z,101127.00
2023-02-02T23:28:03.504Z,101115.44
2023-02-02T23:30:31.306Z,101100.28
2023-02-02T23:32:59.173Z,101103.19
2023-02-02T23:35:27.113Z,101106.06
2023-02-02T23:37:54.913Z,101101.66
2023-02-02T23:40:24.370Z,101094.66
2023-02-02T23:42:52.468Z,101098.56
2023-02-02T23:45:20.243Z,101084.09
2023-02-02T23:47:48.037Z,101086.63
2023-02-02T23:50:15.922Z,101078.47
2023-02-02T23:52:43.808Z,101078.97
2023-02-02T23:55:11.593Z,101074.69
2023-02-02T23:57:39.478Z,101075.56
